createdAt,value
2023-04-21T00:02:26.080Z,100565.88
2023-04-21T00:04:54.125Z,100556.19
2023-04-21T00:07:22.737Z,100548.41
2023-04-21T00:09:50.563Z,100555.72
2023-04-21T00:12:18.370Z,100556.56
2023-04-21T00:14:46.392Z,100555.53
2023-04-21T00:17:14.192Z,100552.81
2023-04-21T00:19:42.431Z,100555.34
2023-04-21T00:22:14.843Z,100552.16
2023-04-21T00:24:42.660Z,100546.53
2023-04-21T00:27:11.515Z,100546.03
2023-04-21T00:29:40.622Z,100541.59
2023-04-21T00:32:10.425Z,100539.56
2023-04-21T00:34:38.513Z,100536.84
2023-04-21T00:37:06.401Z,100533.78
2023-04-21T00:39:34.224Z,100528.72
2023-04-21T00:42:02.529Z,100536.69
2023-04-21T00:44:30.468Z,100531.28
2023-04-21T00:46:58.546Z,100527.03
2023-04-21T00:49:26.361Z,100526.16
2023-04-21T00:51:54.119Z,100522.59
2023-04-21T00:54:22.031Z,100516.50
2023-04-21T00:56:50.027Z,100520.22
2023-04-21T00:59:18.124Z,100514.78
2023-04-21T01:01:46.125Z,100515.81
2023-04-21T01:04:14.006Z,100513.78
2023-04-21T01:06:41.921Z,100513.09
2023-04-21T01:09:09.695Z,100510.53
2023-04-21T01:11:37.489Z,100504.78
2023-04-21T01:14:05.463Z,100511.06
2023-04-21T01:16:33.718Z,100508.34
2023-04-21T01:19:01.603Z,100513.44
2023-04-21T01:21:32.074Z,100507.16
2023-04-21T01:23:59.847Z,100501.72
2023-04-21T01:26:27.605Z,100501.56
2023-04-21T01:28:55.519Z,100508.84
2023-04-21T01:31:24.274Z,100504.25
2023-04-21T01:33:52.100Z,100509.69
2023-04-21T01:36:20.255Z,100497.16
2023-04-21T01:38:48.051Z,100504.63
2023-04-21T01:41:15.993Z,100499.53
2023-04-21T01:43:43.783Z,100502.25
2023-04-21T01:46:11.765Z,100495.09
2023-04-21T01:48:39.541Z,100502.25
2023-04-21T01:51:07.523Z,100501.56
2023-04-21T01:53:35.356Z,100501.22
2023-04-21T01:56:03.165Z,100501.56
2023-04-21T01:58:30.948Z,100495.28
2023-04-21T02:00:58.819Z,100500.72
2023-04-21T02:03:26.916Z,100501.91
2023-04-21T02:05:54.854Z,100495.59
2023-04-21T02:08:22.697Z,100500.38
2023-04-21T02:10:50.578Z,100491.38
2023-04-21T02:13:18.463Z,100491.88
2023-04-21T02:15:46.369Z,100489.34
2023-04-21T02:18:14.974Z,100494.75
2023-04-21T02:20:42.857Z,100494.09
2023-04-21T02:23:10.637Z,100490.16
2023-04-21T02:25:38.429Z,100494.75
2023-04-21T02:28:06.254Z,100487.81
2023-04-21T02:30:34.268Z,100484.94
2023-04-21T02:33:02.425Z,100495.13
2023-04-21T02:35:30.382Z,100493.25
2023-04-21T02:37:58.172Z,100490.38
2023-04-21T02:40:26.340Z,100495.59
2023-04-21T02:42:54.122Z,100494.75
2023-04-21T02:45:21.981Z,100496.47
2023-04-21T02:47:49.893Z,100494.41
2023-04-21T02:50:17.801Z,100493.09
2023-04-21T02:52:45.547Z,100488.66
2023-04-21T02:55:13.532Z,100493.25
2023-04-21T02:57:41.417Z,100493.25
2023-04-21T03:00:14.058Z,100492.25
2023-04-21T03:02:42.055Z,100498.69
2023-04-21T03:05:10.108Z,100491.38
2023-04-21T03:07:37.923Z,100497.69
2023-04-21T03:10:06.342Z,100489.69
2023-04-21T03:12:34.150Z,100497.84
2023-04-21T03:15:01.930Z,100499.53
2023-04-21T03:17:33.332Z,100485.94
2023-04-21T03:20:01.368Z,100493.09
2023-04-21T03:22:29.268Z,100483.22
2023-04-21T03:24:57.107Z,100479.16
2023-04-21T03:27:24.965Z,100480.16
2023-04-21T03:29:52.741Z,100487.31
2023-04-21T03:32:20.664Z,100493.44
2023-04-21T03:34:50.210Z,100488.16
2023-04-21T03:37:18.098Z,100490.03
2023-04-21T03:39:45.921Z,100490.03
2023-04-21T03:42:13.735Z,100486.28
2023-04-21T03:44:41.539Z,100491.72
2023-04-21T03:47:09.363Z,100491.22
2023-04-21T03:49:37.224Z,100486.09
2023-04-21T03:52:05.244Z,100487.09
2023-04-21T03:54:33.051Z,100488.97
2023-04-21T03:57:00.890Z,100491.69
2023-04-21T03:59:28.764Z,100490.00
2023-04-21T04:01:56.580Z,100492.38
2023-04-21T04:04:24.606Z,100490.69
2023-04-21T04:06:52.519Z,100486.78
2023-04-21T04:09:20.641Z,100493.22
2023-04-21T04:11:48.573Z,100486.94
2023-04-21T04:14:16.451Z,100486.78
2023-04-21T04:16:44.321Z,100489.81
2023-04-21T04:19:12.654Z,100496.44
2023-04-21T04:21:40.526Z,100501.88
2023-04-21T04:24:08.838Z,100500.88
2023-04-21T04:26:38.469Z,100496.13
2023-04-21T04:29:10.519Z,100500.38
2023-04-21T04:31:38.470Z,100504.94
2023-04-21T04:34:06.824Z,100504.47
2023-04-21T04:36:34.786Z,100506.34
2023-04-21T04:39:02.564Z,100501.75
2023-04-21T04:41:30.657Z,100506.34
2023-04-21T04:44:00.976Z,100506.34
2023-04-21T04:46:29.020Z,100511.56
2023-04-21T04:48:56.882Z,100505.97
2023-04-21T04:51:25.186Z,100504.09
2023-04-21T04:53:53.035Z,100495.81
2023-04-21T04:56:21.050Z,100509.72
2023-04-21T04:58:48.870Z,100512.25
2023-04-21T05:01:16.677Z,100513.28
2023-04-21T05:03:44.756Z,100508.00
2023-04-21T05:06:14.055Z,100515.66
2023-04-21T05:08:42.557Z,100513.09
2023-04-21T05:11:10.433Z,100516.84
2023-04-21T05:13:40.018Z,100515.66
2023-04-21T05:16:08.090Z,100513.97
2023-04-21T05:18:35.955Z,100512.44
2023-04-21T05:21:03.681Z,100517.03
2023-04-21T05:23:31.522Z,100530.41
2023-04-21T05:26:01.147Z,100517.88
2023-04-21T05:28:31.934Z,100516.69
2023-04-21T05:30:59.828Z,100516.31
2023-04-21T05:33:27.981Z,100516.16
2023-04-21T05:35:55.906Z,100513.09
2023-04-21T05:38:23.676Z,100517.50
2023-04-21T05:40:51.452Z,100518.53
2023-04-21T05:43:19.271Z,100513.41
2023-04-21T05:45:47.179Z,100524.28
2023-04-21T05:48:15.068Z,100522.59
2023-04-21T05:50:42.917Z,100514.91
2023-04-21T05:53:10.794Z,100524.59
2023-04-21T05:55:38.626Z,100522.88
2023-04-21T05:58:06.528Z,100525.41
2023-04-21T06:00:34.337Z,100520.28
2023-04-21T06:03:02.273Z,100527.09
2023-04-21T06:05:30.731Z,100515.69
2023-04-21T06:07:58.653Z,100523.84
2023-04-21T06:10:26.666Z,100520.41
2023-04-21T06:12:54.565Z,100521.59
2023-04-21T06:15:22.409Z,100515.97
2023-04-21T06:17:50.306Z,100521.91
2023-04-21T06:20:18.225Z,100515.94
2023-04-21T06:22:46.112Z,100514.91
2023-04-21T06:25:13.990Z,100520.84
2023-04-21T06:27:41.772Z,100521.16
2023-04-21T06:30:09.598Z,100507.72
2023-04-21T06:32:37.390Z,100512.63
2023-04-21T06:35:05.220Z,100509.72
2023-04-21T06:37:33.044Z,100499.88
2023-04-21T06:40:00.906Z,100501.56
2023-04-21T06:42:28.879Z,100506.00
2023-04-21T06:44:57.296Z,100505.63
2023-04-21T06:47:25.175Z,100511.06
2023-04-21T06:49:53.016Z,100509.03
2023-04-21T06:52:20.764Z,100508.19
2023-04-21T06:54:48.582Z,100514.28
2023-04-21T06:57:17.430Z,100503.22
2023-04-21T06:59:45.303Z,100498.25
2023-04-21T07:02:13.171Z,100504.00
2023-04-21T07:04:41.184Z,100497.34
2023-04-21T07:07:10.488Z,100496.50
2023-04-21T07:09:38.286Z,100501.09
2023-04-21T07:12:06.111Z,100493.63
2023-04-21T07:14:34.000Z,100495.28
2023-04-21T07:17:01.889Z,100500.94
2023-04-21T07:19:29.766Z,100492.56
2023-04-21T07:21:58.328Z,100493.63
2023-04-21T07:24:26.162Z,100497.53
2023-04-21T07:26:54.366Z,100492.94
2023-04-21T07:29:22.216Z,100491.06
2023-04-21T07:31:50.057Z,100486.97
2023-04-21T07:34:17.855Z,100483.66
2023-04-21T07:36:45.899Z,100484.88
2023-04-21T07:39:13.734Z,100490.16
2023-04-21T07:41:41.543Z,100483.03
2023-04-21T07:44:09.374Z,100482.00
2023-04-21T07:46:37.271Z,100483.50
2023-04-21T07:49:05.302Z,100483.34
2023-04-21T07:51:33.188Z,100479.56
2023-04-21T07:54:01.054Z,100483.13
2023-04-21T07:56:28.978Z,100485.69
2023-04-21T07:58:56.952Z,100470.03
2023-04-21T08:01:24.924Z,100480.72
2023-04-21T08:03:52.859Z,100474.91
2023-04-21T08:06:21.383Z,100469.44
2023-04-21T08:08:50.246Z,100472.00
2023-04-21T08:11:18.099Z,100471.84
2023-04-21T08:13:46.299Z,100469.97
2023-04-21T08:16:14.400Z,100469.59
2023-04-21T08:18:42.327Z,100473.16
2023-04-21T08:21:11.629Z,100472.97
2023-04-21T08:23:39.467Z,100473.44
2023-04-21T08:26:07.241Z,100478.06
2023-04-21T08:28:34.974Z,100470.06
2023-04-21T08:31:03.094Z,100470.06
2023-04-21T08:33:31.158Z,100463.38
2023-04-21T08:36:05.359Z,100460.28
2023-04-21T08:38:38.269Z,100465.75
2023-04-21T08:41:06.061Z,100465.56
2023-04-21T08:43:33.851Z,100466.25
2023-04-21T08:46:01.746Z,100470.84
2023-04-21T08:48:29.618Z,100466.41
2023-04-21T08:50:57.510Z,100466.41
2023-04-21T08:53:25.354Z,100463.34
2023-04-21T08:56:09.526Z,100463.34
2023-04-21T08:58:39.010Z,100463.34
2023-04-21T09:01:06.849Z,100464.00
2023-04-21T09:03:34.838Z,100461.13
2023-04-21T09:06:03.271Z,100453.13
2023-04-21T09:08:31.947Z,100447.66
2023-04-21T09:10:59.954Z,100459.91
2023-04-21T09:13:27.717Z,100448.81
2023-04-21T09:15:55.609Z,100459.91
2023-04-21T09:18:23.388Z,100448.16
2023-04-21T09:20:51.684Z,100452.09
2023-04-21T09:23:19.450Z,100443.72
2023-04-21T09:25:47.230Z,100445.25
2023-04-21T09:28:15.034Z,100438.94
2023-04-21T09:30:42.919Z,100444.41
2023-04-21T09:33:20.092Z,100442.22
2023-04-21T09:35:55.567Z,100430.31
2023-04-21T09:38:23.328Z,100429.94
2023-04-21T09:40:51.214Z,100430.41
2023-04-21T09:43:18.997Z,100431.75
2023-04-21T09:45:46.826Z,100429.19
2023-04-21T09:48:14.738Z,100425.25
2023-04-21T09:51:22.074Z,100422.34
2023-04-21T09:53:30.361Z,100424.03
2023-04-21T09:55:58.278Z,100424.03
2023-04-21T09:58:26.113Z,100428.81
2023-04-21T10:00:53.966Z,100423.06
2023-04-21T10:03:21.975Z,100420.34
2023-04-21T10:05:49.916Z,100421.22
2023-04-21T10:08:17.803Z,100416.78
2023-04-21T10:10:45.598Z,100413.03
2023-04-21T10:13:13.346Z,100407.22
2023-04-21T10:15:41.190Z,100412.44
2023-04-21T10:18:09.046Z,100406.16
2023-04-21T10:20:36.852Z,100419.78
2023-04-21T10:23:04.801Z,100415.94
2023-04-21T10:25:36.090Z,100408.81
2023-04-21T10:28:05.619Z,100410.03
2023-04-21T10:30:33.433Z,100407.38
2023-04-21T10:33:01.308Z,100401.25
2023-04-21T10:35:29.120Z,100402.59
2023-04-21T10:37:56.907Z,100403.44
2023-04-21T10:40:36.458Z,100406.00
2023-04-21T10:43:10.818Z,100399.66
2023-04-21T10:45:38.833Z,100387.94
2023-04-21T10:48:06.682Z,100393.22
2023-04-21T10:50:34.921Z,100388.22
2023-04-21T10:53:03.607Z,100378.34
2023-04-21T10:55:31.754Z,100394.50
2023-04-21T10:58:00.318Z,100374.22
2023-04-21T11:00:28.280Z,100380.53
2023-04-21T11:02:56.315Z,100376.38
2023-04-21T11:05:24.262Z,100378.09
2023-04-21T11:07:52.071Z,100385.78
2023-04-21T11:10:20.043Z,100382.59
2023-04-21T11:12:47.864Z,100366.25
2023-04-21T11:15:16.272Z,100371.69
2023-04-21T11:17:44.385Z,100367.91
2023-04-21T11:20:12.213Z,100357.69
2023-04-21T11:22:40.041Z,100352.06
2023-04-21T11:25:07.858Z,100348.94
2023-04-21T11:27:35.634Z,100361.34
2023-04-21T11:30:03.617Z,100368.03
2023-04-21T11:32:31.493Z,100362.97
2023-04-21T11:34:59.321Z,100352.06
2023-04-21T11:37:28.252Z,100364.63
2023-04-21T11:39:56.164Z,100347.25
2023-04-21T11:42:23.949Z,100347.44
2023-04-21T11:44:51.752Z,100345.19
2023-04-21T11:47:19.521Z,100343.88
2023-04-21T11:49:47.690Z,100340.09
2023-04-21T11:52:15.490Z,100347.44
2023-04-21T11:54:43.244Z,100339.94
2023-04-21T11:57:11.052Z,100336.25
2023-04-21T11:59:38.885Z,100331.00
2023-04-21T12:02:07.834Z,100336.06
2023-04-21T12:04:36.251Z,100312.56
2023-04-21T12:07:04.144Z,100318.13
2023-04-21T12:09:31.952Z,100331.38
2023-04-21T12:11:59.957Z,100316.81
2023-04-21T12:14:27.851Z,100324.50
2023-04-21T12:16:55.718Z,100325.84
2023-04-21T12:19:23.504Z,100317.75
2023-04-21T12:21:51.294Z,100304.00
2023-04-21T12:24:19.349Z,100302.63
2023-04-21T12:26:48.599Z,100306.19
2023-04-21T12:29:16.396Z,100306.06
2023-04-21T12:31:44.257Z,100301.94
2023-04-21T12:34:12.122Z,100309.28
2023-04-21T12:36:40.037Z,100304.78
2023-04-21T12:39:07.927Z,100304.22
2023-04-21T12:41:35.857Z,100315.22
2023-04-21T12:44:03.634Z,100297.16
2023-04-21T12:46:31.543Z,100300.38
2023-04-21T12:48:59.476Z,100307.03
2023-04-21T12:51:27.320Z,100289.28
2023-04-21T12:53:55.110Z,100290.13
2023-04-21T12:56:22.914Z,100290.78
2023-04-21T12:58:50.703Z,100284.59
2023-04-21T13:01:18.718Z,100296.41
2023-04-21T13:03:46.767Z,100285.31
2023-04-21T13:06:14.641Z,100289.84
2023-04-21T13:08:42.437Z,100278.75
2023-04-21T13:11:10.695Z,100282.97
2023-04-21T13:13:39.080Z,100289.00
2023-04-21T13:16:06.855Z,100271.97
2023-04-21T13:18:36.053Z,100281.38
2023-04-21T13:21:03.840Z,100271.16
2023-04-21T13:23:31.944Z,100267.75
2023-04-21T13:25:59.848Z,100270.69
2023-04-21T13:28:27.711Z,100263.53
2023-04-21T13:30:55.585Z,100265.81
2023-04-21T13:33:23.380Z,100256.97
2023-04-21T13:35:51.182Z,100251.88
2023-04-21T13:38:19.110Z,100252.56
2023-04-21T13:40:49.006Z,100225.97
2023-04-21T13:43:16.882Z,100239.41
2023-04-21T13:45:46.169Z,100243.81
2023-04-21T13:48:14.037Z,100239.66
2023-04-21T13:50:41.926Z,100236.28
2023-04-21T13:53:09.740Z,100235.19
2023-04-21T13:55:37.618Z,100236.56
2023-04-21T13:58:06.893Z,100225.94
2023-04-21T14:00:34.702Z,100223.72
2023-04-21T14:03:02.926Z,100214.97
2023-04-21T14:05:31.011Z,100221.28
2023-04-21T14:07:58.962Z,100216.91
2023-04-21T14:10:26.848Z,100215.28
2023-04-21T14:12:54.693Z,100192.06
2023-04-21T14:15:22.560Z,100208.88
2023-04-21T14:17:50.394Z,100211.44
2023-04-21T14:20:18.233Z,100200.13
2023-04-21T14:22:46.087Z,100211.50
2023-04-21T14:25:13.953Z,100197.00
2023-04-21T14:27:41.736Z,100197.84
2023-04-21T14:30:10.600Z,100195.97
2023-04-21T14:32:38.630Z,100189.22
2023-04-21T14:35:06.780Z,100181.69
2023-04-21T14:37:34.562Z,100192.78
2023-04-21T14:40:03.897Z,100187.53
2023-04-21T14:42:31.760Z,100168.63
2023-04-21T14:44:59.560Z,100174.06
2023-04-21T14:47:27.583Z,100170.69
2023-04-21T14:49:56.079Z,100174.88
2023-04-21T14:52:25.865Z,100165.84
2023-04-21T14:54:53.798Z,100166.84
2023-04-21T14:57:22.185Z,100164.69
2023-04-21T14:59:50.135Z,100169.53
2023-04-21T15:02:18.081Z,100159.47
2023-04-21T15:04:46.006Z,100170.75
2023-04-21T15:07:13.904Z,100157.97
2023-04-21T15:09:45.680Z,100158.09
2023-04-21T15:12:14.701Z,100155.91
2023-04-21T15:14:42.569Z,100153.44
2023-04-21T15:17:10.480Z,100147.38
2023-04-21T15:19:38.397Z,100149.94
2023-04-21T15:22:06.284Z,100141.75
2023-04-21T15:24:34.127Z,100147.19
2023-04-21T15:27:02.527Z,100143.41
2023-04-21T15:29:30.408Z,100150.59
2023-04-21T15:31:58.439Z,100154.56
2023-04-21T15:34:26.287Z,100148.22
2023-04-21T15:36:54.728Z,100149.28
2023-04-21T15:39:22.549Z,100139.84
2023-04-21T15:41:50.680Z,100148.88
2023-04-21T15:44:18.775Z,100135.22
2023-04-21T15:46:46.615Z,100136.06
2023-04-21T15:49:14.459Z,100128.59
2023-04-21T15:51:42.283Z,100141.59
2023-04-21T15:54:10.237Z,100134.03
2023-04-21T15:56:38.079Z,100127.13
2023-04-21T15:59:06.645Z,100119.41
2023-04-21T16:01:34.580Z,100117.69
2023-04-21T16:04:03.623Z,100117.50
2023-04-21T16:06:31.786Z,100123.78
2023-04-21T16:08:59.718Z,100112.06
2023-04-21T16:11:29.285Z,100115.66
2023-04-21T16:13:57.129Z,100119.00
2023-04-21T16:16:25.260Z,100110.81
2023-04-21T16:18:53.229Z,100105.81
2023-04-21T16:21:21.059Z,100108.31
2023-04-21T16:23:48.940Z,100106.47
2023-04-21T16:26:16.893Z,100107.28
2023-04-21T16:28:44.759Z,100098.47
2023-04-21T16:31:12.538Z,100100.53
2023-04-21T16:33:40.451Z,100103.03
2023-04-21T16:36:08.271Z,100093.16
2023-04-21T16:38:36.110Z,100099.47
2023-04-21T16:41:04.028Z,100099.03
2023-04-21T16:43:31.844Z,100096.06
2023-04-21T16:46:01.563Z,100091.84
2023-04-21T16:48:29.506Z,100097.91
2023-04-21T16:50:58.020Z,100098.09
2023-04-21T16:53:26.692Z,100097.03
2023-04-21T16:55:54.444Z,100101.00
2023-04-21T16:58:24.347Z,100095.75
2023-04-21T17:00:52.449Z,100089.44
2023-04-21T17:03:20.587Z,100107.50
2023-04-21T17:05:48.746Z,100091.72
2023-04-21T17:08:16.520Z,100097.84
2023-04-21T17:10:44.265Z,100085.22
2023-04-21T17:13:12.098Z,100091.91
2023-04-21T17:15:39.938Z,100090.88
2023-04-21T17:18:07.745Z,100092.38
2023-04-21T17:20:35.625Z,100088.84
2023-04-21T17:23:03.420Z,100092.44
2023-04-21T17:27:59.220Z,100085.75
2023-04-21T17:30:27.027Z,100085.75
2023-04-21T17:33:04.257Z,100081.78
2023-04-21T17:35:55.774Z,100087.06
2023-04-21T17:38:29.820Z,100086.00
2023-04-21T17:40:57.653Z,100084.56
2023-04-21T17:43:25.540Z,100095.06
2023-04-21T17:45:53.502Z,100093.59
2023-04-21T17:48:21.461Z,100090.47
2023-04-21T17:50:49.408Z,100090.91
2023-04-21T17:53:17.427Z,100095.13
2023-04-21T17:55:45.323Z,100093.88
2023-04-21T17:58:13.359Z,100090.09
2023-04-21T18:00:41.410Z,100094.50
2023-04-21T18:03:09.422Z,100093.69
2023-04-21T18:05:37.601Z,100090.13
2023-04-21T18:08:05.474Z,100098.09
2023-04-21T18:10:33.725Z,100093.31
2023-04-21T18:13:01.536Z,100093.97
2023-04-21T18:15:29.436Z,100096.28
2023-04-21T18:17:57.530Z,100097.34
2023-04-21T18:20:25.435Z,100095.22
2023-04-21T18:22:54.330Z,100101.06
2023-04-21T18:25:38.215Z,100102.91
2023-04-21T18:28:11.018Z,100096.59
2023-04-21T18:30:39.035Z,100099.34
2023-04-21T18:33:06.946Z,100105.22
2023-04-21T18:35:34.965Z,100098.03
2023-04-21T18:38:02.765Z,100104.31
2023-04-21T18:40:30.916Z,100106.59
2023-04-21T18:42:58.773Z,100110.56
2023-04-21T18:45:26.603Z,100105.53
2023-04-21T18:47:54.657Z,100102.56
2023-04-21T18:50:22.557Z,100104.03
2023-04-21T18:52:50.414Z,100103.38
2023-04-21T18:55:18.270Z,100108.19
2023-04-21T18:57:46.034Z,100107.94
2023-04-21T19:00:13.915Z,100104.56
2023-04-21T19:02:41.964Z,100111.25
2023-04-21T19:05:09.975Z,100104.31
2023-04-21T19:07:37.909Z,100104.06
2023-04-21T19:10:05.973Z,100112.88
2023-04-21T19:12:34.261Z,100109.69
2023-04-21T19:15:02.703Z,100111.16
2023-04-21T19:17:30.652Z,100111.16
2023-04-21T19:19:58.799Z,100111.91
2023-04-21T19:22:27.785Z,100110.63
2023-04-21T19:24:57.164Z,100101.78
2023-04-21T19:27:24.998Z,100111.00
2023-04-21T19:29:52.972Z,100111.38
2023-04-21T19:32:21.089Z,100106.72
2023-04-21T19:34:49.259Z,100104.81
2023-04-21T19:37:17.100Z,100113.75
2023-04-21T19:39:45.008Z,100114.97
2023-04-21T19:42:13.027Z,100110.59
2023-04-21T19:44:41.034Z,100107.66
2023-04-21T19:47:09.119Z,100101.56
2023-04-21T19:49:36.951Z,100101.97
2023-04-21T19:52:05.060Z,100112.25
2023-04-21T19:54:33.041Z,100101.09
2023-04-21T19:57:01.584Z,100103.63
2023-04-21T19:59:29.716Z,100108.25
2023-04-21T20:01:57.641Z,100106.56
2023-04-21T20:04:25.870Z,100105.69
2023-04-21T20:06:54.194Z,100109.84
2023-04-21T20:09:22.060Z,100111.09
2023-04-21T20:11:50.242Z,100108.56
2023-04-21T20:14:18.958Z,100108.91
2023-04-21T20:16:46.870Z,100114.56
2023-04-21T20:19:15.302Z,100111.38
2023-04-21T20:21:43.898Z,100113.03
2023-04-21T20:24:12.392Z,100113.84
2023-04-21T20:26:40.371Z,100110.09
2023-04-21T20:29:08.301Z,100113.41
2023-04-21T20:31:36.484Z,100117.44
2023-04-21T20:34:04.369Z,100121.59
2023-04-21T20:36:32.289Z,100118.44
2023-04-21T20:39:01.236Z,100120.94
2023-04-21T20:41:29.487Z,100123.88
2023-04-21T20:43:57.653Z,100122.59
2023-04-21T20:46:26.229Z,100111.66
2023-04-21T20:48:54.120Z,100124.28
2023-04-21T20:51:22.216Z,100122.59
2023-04-21T20:53:50.112Z,100120.44
2023-04-21T20:56:18.144Z,100125.44
2023-04-21T20:58:45.948Z,100126.50
2023-04-21T21:01:14.237Z,100127.91
2023-04-21T21:03:42.414Z,100124.34
2023-04-21T21:06:10.691Z,100127.88
2023-04-21T21:08:38.528Z,100130.38
2023-04-21T21:11:06.464Z,100133.94
2023-04-21T21:13:34.432Z,100130.38
2023-04-21T21:16:02.330Z,100132.84
2023-04-21T21:18:34.572Z,100135.13
2023-04-21T21:21:02.345Z,100139.09
2023-04-21T21:23:30.182Z,100141.16
2023-04-21T21:25:58.675Z,100138.44
2023-04-21T21:28:26.545Z,100143.22
2023-04-21T21:30:54.467Z,100137.97
2023-04-21T21:33:22.401Z,100140.72
2023-04-21T21:35:50.227Z,100139.00
2023-04-21T21:38:18.359Z,100140.22
2023-04-21T21:40:46.146Z,100143.34
2023-04-21T21:43:14.001Z,100142.91
2023-04-21T21:45:41.954Z,100141.19
2023-04-21T21:48:09.877Z,100147.69
2023-04-21T21:50:37.833Z,100153.13
2023-04-21T21:53:05.794Z,100154.38
2023-04-21T21:55:33.744Z,100145.53
2023-04-21T21:58:04.051Z,100158.50
2023-04-21T22:00:32.135Z,100151.81
2023-04-21T22:03:00.070Z,100155.41
2023-04-21T22:05:28.225Z,100151.00
2023-04-21T22:07:57.042Z,100156.66
2023-04-21T22:10:25.043Z,100156.81
2023-04-21T22:12:52.856Z,100158.50
2023-04-21T22:15:20.680Z,100155.16
2023-04-21T22:17:48.648Z,100158.88
2023-04-21T22:20:18.360Z,100158.88
2023-04-21T22:22:46.114Z,100159.72
2023-04-21T22:25:14.111Z,100165.53
2023-04-21T22:27:42.235Z,100161.31
2023-04-21T22:30:10.251Z,100161.31
2023-04-21T22:32:38.149Z,100150.97
2023-04-21T22:35:06.199Z,100161.44
2023-04-21T22:37:33.971Z,100153.91
2023-04-21T22:40:01.995Z,100162.25
2023-04-21T22:42:29.954Z,100166.88
2023-04-21T22:44:57.802Z,100168.75
2023-04-21T22:47:26.173Z,100167.91
2023-04-21T22:49:55.818Z,100158.69
2023-04-21T22:52:26.573Z,100158.69
2023-04-21T22:54:54.376Z,100161.59
2023-04-21T22:57:22.244Z,100157.41
2023-04-21T22:59:50.379Z,100154.88
2023-04-21T23:02:18.307Z,100152.97
2023-04-21T23:04:46.227Z,100156.47
2023-04-21T23:07:14.364Z,100163.22
2023-04-21T23:09:42.161Z,100151.69
2023-04-21T23:12:10.054Z,100148.31
2023-04-21T23:14:37.882Z,100145.97
2023-04-21T23:17:06.016Z,100149.31
2023-04-21T23:19:33.839Z,100149.72
2023-04-21T23:22:01.707Z,100149.72
2023-04-21T23:24:29.649Z,100154.50
2023-04-21T23:26:57.833Z,100145.47
2023-04-21T23:29:25.881Z,100155.91
2023-04-21T23:31:53.738Z,100149.81
2023-04-21T23:34:21.773Z,100155.25
2023-04-21T23:36:49.652Z,100151.69
2023-04-21T23:39:18.159Z,100150.19
2023-04-21T23:41:46.009Z,100139.31
2023-04-21T23:44:13.820Z,100145.75
2023-04-21T23:46:41.769Z,100142.03
2023-04-21T23:49:09.715Z,100135.75
2023-04-21T23:51:37.596Z,100139.88
2023-04-21T23:54:05.447Z,100137.16
2023-04-21T23:56:33.445Z,100143.44
2023-04-21T23:59:01.367Z,100138.19
